Terminal Aerodrome Forecast
Issued by NWS

Home | Current Version | Previous Version | Text Only | Print | Product List | Glossary On
Versions: 1 2 3 4 5 6 7 8 9 10 11 12 13 14 15 16 17
525
FTUS41 KCAR 182320
TAFHUL
TAF
KHUL 182320Z 1900/1924 14005KT P6SM VCSH OVC050
     FM190100 14006KT 5SM -SHRA OVC050
      TEMPO 1905/1909 1SM -SHRA BR OVC003
     FM190900 15008KT 2SM BR VCSH OVC003
     FM191200 14009KT P6SM VCSH OVC003
     FM191300 14008KT P6SM VCSH BKN010=

USA.gov is the U.S. government's official web portal to all federal, state and local government web resources and services.